sensor_id;sensor_type;location;lat;lon;timestamp;temperature;humidity
40323;DHT22;26030;51.164;17.100;2024-02-23T00:01:16;23.60;57.30
40323;DHT22;26030;51.164;17.100;2024-02-23T00:06:20;23.50;57.40
40323;DHT22;26030;51.164;17.100;2024-02-23T00:11:24;23.50;57.30
40323;DHT22;26030;51.164;17.100;2024-02-23T00:16:37;23.50;57.10
40323;DHT22;26030;51.164;17.100;2024-02-23T00:21:41;23.40;57.10
40323;DHT22;26030;51.164;17.100;2024-02-23T00:26:46;23.40;57.10
40323;DHT22;26030;51.164;17.100;2024-02-23T00:31:50;23.30;56.50
40323;DHT22;26030;51.164;17.100;2024-02-23T00:36:54;23.30;57.50
40323;DHT22;26030;51.164;17.100;2024-02-23T00:41:59;23.30;57.40
40323;DHT22;26030;51.164;17.100;2024-02-23T00:47:06;23.20;57.20
40323;DHT22;26030;51.164;17.100;2024-02-23T00:52:11;23.10;57.20
40323;DHT22;26030;51.164;17.100;2024-02-23T00:57:16;23.10;57.10
40323;DHT22;26030;51.164;17.100;2024-02-23T01:02:22;23.00;57.50
40323;DHT22;26030;51.164;17.100;2024-02-23T01:07:27;23.00;57.20
40323;DHT22;26030;51.164;17.100;2024-02-23T01:12:31;23.00;57.60
40323;DHT22;26030;51.164;17.100;2024-02-23T01:17:35;23.00;57.20
40323;DHT22;26030;51.164;17.100;2024-02-23T01:22:39;23.00;57.40
40323;DHT22;26030;51.164;17.100;2024-02-23T01:27:44;22.90;57.30
40323;DHT22;26030;51.164;17.100;2024-02-23T01:32:49;23.00;57.30
40323;DHT22;26030;51.164;17.100;2024-02-23T01:37:55;23.30;56.80
40323;DHT22;26030;51.164;17.100;2024-02-23T01:48:07;23.60;56.40
40323;DHT22;26030;51.164;17.100;2024-02-23T01:53:11;23.70;55.90
40323;DHT22;26030;51.164;17.100;2024-02-23T01:58:16;23.70;55.60
40323;DHT22;26030;51.164;17.100;2024-02-23T02:03:21;23.60;56.00
40323;DHT22;26030;51.164;17.100;2024-02-23T02:08:26;23.60;55.80
40323;DHT22;26030;51.164;17.100;2024-02-23T02:13:30;23.60;55.90
40323;DHT22;26030;51.164;17.100;2024-02-23T02:18:34;23.50;55.80
40323;DHT22;26030;51.164;17.100;2024-02-23T02:23:38;23.50;56.00
40323;DHT22;26030;51.164;17.100;2024-02-23T02:28:42;23.40;56.20
40323;DHT22;26030;51.164;17.100;2024-02-23T02:33:47;23.40;56.10
40323;DHT22;26030;51.164;17.100;2024-02-23T02:38:51;23.30;56.00
40323;DHT22;26030;51.164;17.100;2024-02-23T02:43:57;23.10;56.50
40323;DHT22;26030;51.164;17.100;2024-02-23T02:49:01;23.00;56.90
40323;DHT22;26030;51.164;17.100;2024-02-23T02:54:05;23.10;56.10
40323;DHT22;26030;51.164;17.100;2024-02-23T02:59:10;23.10;56.60
40323;DHT22;26030;51.164;17.100;2024-02-23T03:04:14;22.90;56.70
40323;DHT22;26030;51.164;17.100;2024-02-23T03:09:19;22.90;56.70
40323;DHT22;26030;51.164;17.100;2024-02-23T03:14:23;22.90;56.70
40323;DHT22;26030;51.164;17.100;2024-02-23T03:19:27;22.90;56.80
40323;DHT22;26030;51.164;17.100;2024-02-23T03:24:31;23.00;56.60
40323;DHT22;26030;51.164;17.100;2024-02-23T03:29:35;22.80;56.80
40323;DHT22;26030;51.164;17.100;2024-02-23T03:34:40;22.90;56.60
40323;DHT22;26030;51.164;17.100;2024-02-23T03:39:44;23.00;56.40
40323;DHT22;26030;51.164;17.100;2024-02-23T03:44:48;23.30;55.80
40323;DHT22;26030;51.164;17.100;2024-02-23T03:49:52;23.40;55.90
40323;DHT22;26030;51.164;17.100;2024-02-23T03:54:56;23.50;55.30
40323;DHT22;26030;51.164;17.100;2024-02-23T04:00:00;23.50;55.00
40323;DHT22;26030;51.164;17.100;2024-02-23T04:05:13;23.50;54.90
40323;DHT22;26030;51.164;17.100;2024-02-23T04:10:19;23.60;55.00
40323;DHT22;26030;51.164;17.100;2024-02-23T04:15:23;23.50;55.10
40323;DHT22;26030;51.164;17.100;2024-02-23T04:20:28;23.40;55.40
40323;DHT22;26030;51.164;17.100;2024-02-23T04:25:32;23.30;55.30
40323;DHT22;26030;51.164;17.100;2024-02-23T04:30:36;23.30;55.50
40323;DHT22;26030;51.164;17.100;2024-02-23T04:35:40;23.30;55.60
40323;DHT22;26030;51.164;17.100;2024-02-23T04:40:48;23.20;55.70
40323;DHT22;26030;51.164;17.100;2024-02-23T04:45:52;23.20;56.10
40323;DHT22;26030;51.164;17.100;2024-02-23T04:50:57;23.20;56.00
40323;DHT22;26030;51.164;17.100;2024-02-23T04:56:02;23.10;56.20
40323;DHT22;26030;51.164;17.100;2024-02-23T05:01:06;23.10;55.90
40323;DHT22;26030;51.164;17.100;2024-02-23T05:06:10;23.10;55.70
40323;DHT22;26030;51.164;17.100;2024-02-23T05:11:14;23.00;56.20
40323;DHT22;26030;51.164;17.100;2024-02-23T05:16:20;23.00;56.00
40323;DHT22;26030;51.164;17.100;2024-02-23T05:21:24;23.00;56.10
40323;DHT22;26030;51.164;17.100;2024-02-23T05:26:30;23.00;55.90
40323;DHT22;26030;51.164;17.100;2024-02-23T05:31:44;22.90;56.30
40323;DHT22;26030;51.164;17.100;2024-02-23T05:36:52;22.90;56.00
40323;DHT22;26030;51.164;17.100;2024-02-23T05:41:56;22.90;56.30
40323;DHT22;26030;51.164;17.100;2024-02-23T05:47:03;22.80;56.00
40323;DHT22;26030;51.164;17.100;2024-02-23T05:52:08;22.80;56.60
40323;DHT22;26030;51.164;17.100;2024-02-23T05:57:13;22.70;56.30
40323;DHT22;26030;51.164;17.100;2024-02-23T06:02:17;22.70;56.40
40323;DHT22;26030;51.164;17.100;2024-02-23T06:07:21;22.70;57.10
40323;DHT22;26030;51.164;17.100;2024-02-23T06:12:32;22.70;56.30
40323;DHT22;26030;51.164;17.100;2024-02-23T06:17:37;22.60;56.50
40323;DHT22;26030;51.164;17.100;2024-02-23T06:22:42;22.60;56.50
40323;DHT22;26030;51.164;17.100;2024-02-23T06:27:47;22.60;56.60
40323;DHT22;26030;51.164;17.100;2024-02-23T06:32:51;22.70;56.30
40323;DHT22;26030;51.164;17.100;2024-02-23T06:37:55;22.70;56.20
40323;DHT22;26030;51.164;17.100;2024-02-23T06:42:59;22.60;56.30
40323;DHT22;26030;51.164;17.100;2024-02-23T06:48:04;22.60;56.80
40323;DHT22;26030;51.164;17.100;2024-02-23T06:53:08;22.80;56.70
40323;DHT22;26030;51.164;17.100;2024-02-23T06:58:15;23.10;56.80
40323;DHT22;26030;51.164;17.100;2024-02-23T07:03:20;23.20;56.20
40323;DHT22;26030;51.164;17.100;2024-02-23T07:08:24;23.30;56.10
40323;DHT22;26030;51.164;17.100;2024-02-23T07:13:29;23.40;56.30
40323;DHT22;26030;51.164;17.100;2024-02-23T07:18:34;23.40;56.60
40323;DHT22;26030;51.164;17.100;2024-02-23T07:23:38;23.40;56.70
40323;DHT22;26030;51.164;17.100;2024-02-23T07:28:43;23.30;56.90
40323;DHT22;26030;51.164;17.100;2024-02-23T07:33:47;23.40;56.70
40323;DHT22;26030;51.164;17.100;2024-02-23T07:38:52;23.40;56.30
40323;DHT22;26030;51.164;17.100;2024-02-23T07:43:56;23.40;55.90
40323;DHT22;26030;51.164;17.100;2024-02-23T07:49:00;23.30;56.30
40323;DHT22;26030;51.164;17.100;2024-02-23T07:54:05;23.30;56.70
40323;DHT22;26030;51.164;17.100;2024-02-23T07:59:09;23.20;57.20
40323;DHT22;26030;51.164;17.100;2024-02-23T08:04:14;23.20;56.40
40323;DHT22;26030;51.164;17.100;2024-02-23T08:09:18;23.30;56.00
40323;DHT22;26030;51.164;17.100;2024-02-23T08:14:23;23.30;56.00
40323;DHT22;26030;51.164;17.100;2024-02-23T08:19:27;23.30;56.30
40323;DHT22;26030;51.164;17.100;2024-02-23T08:24:31;23.30;56.10
40323;DHT22;26030;51.164;17.100;2024-02-23T08:29:37;23.30;56.40
40323;DHT22;26030;51.164;17.100;2024-02-23T08:34:42;23.20;55.70
40323;DHT22;26030;51.164;17.100;2024-02-23T08:39:47;23.30;55.60
40323;DHT22;26030;51.164;17.100;2024-02-23T08:44:55;23.30;55.90
40323;DHT22;26030;51.164;17.100;2024-02-23T08:49:59;23.20;55.70
40323;DHT22;26030;51.164;17.100;2024-02-23T08:55:04;23.00;55.80
40323;DHT22;26030;51.164;17.100;2024-02-23T09:00:08;23.00;56.10
40323;DHT22;26030;51.164;17.100;2024-02-23T09:05:16;22.90;56.70
40323;DHT22;26030;51.164;17.100;2024-02-23T09:10:21;22.80;56.40
40323;DHT22;26030;51.164;17.100;2024-02-23T09:15:26;23.00;57.10
40323;DHT22;26030;51.164;17.100;2024-02-23T09:20:30;23.10;56.20
40323;DHT22;26030;51.164;17.100;2024-02-23T09:25:34;23.20;55.90
40323;DHT22;26030;51.164;17.100;2024-02-23T09:30:38;23.40;55.80
40323;DHT22;26030;51.164;17.100;2024-02-23T09:35:43;23.30;55.60
40323;DHT22;26030;51.164;17.100;2024-02-23T09:40:53;23.30;55.50
40323;DHT22;26030;51.164;17.100;2024-02-23T09:45:58;23.40;55.50
40323;DHT22;26030;51.164;17.100;2024-02-23T09:51:03;23.40;55.10
40323;DHT22;26030;51.164;17.100;2024-02-23T09:56:08;23.50;54.90
40323;DHT22;26030;51.164;17.100;2024-02-23T10:01:12;23.40;54.60
40323;DHT22;26030;51.164;17.100;2024-02-23T10:06:18;23.30;55.50
40323;DHT22;26030;51.164;17.100;2024-02-23T10:11:22;23.20;55.30
40323;DHT22;26030;51.164;17.100;2024-02-23T10:16:27;23.10;56.00
40323;DHT22;26030;51.164;17.100;2024-02-23T10:21:32;23.20;55.60
40323;DHT22;26030;51.164;17.100;2024-02-23T10:26:36;23.10;55.70
40323;DHT22;26030;51.164;17.100;2024-02-23T10:31:40;23.10;55.60
40323;DHT22;26030;51.164;17.100;2024-02-23T10:36:46;23.00;55.90
40323;DHT22;26030;51.164;17.100;2024-02-23T10:41:56;23.00;55.90
40323;DHT22;26030;51.164;17.100;2024-02-23T10:47:00;23.00;55.40
40323;DHT22;26030;51.164;17.100;2024-02-23T10:52:05;23.00;55.50
40323;DHT22;26030;51.164;17.100;2024-02-23T10:57:10;23.00;55.30
40323;DHT22;26030;51.164;17.100;2024-02-23T11:02:19;23.00;55.40
40323;DHT22;26030;51.164;17.100;2024-02-23T11:07:24;22.90;55.40
40323;DHT22;26030;51.164;17.100;2024-02-23T11:12:31;22.90;55.70
40323;DHT22;26030;51.164;17.100;2024-02-23T11:17:37;23.00;55.70
40323;DHT22;26030;51.164;17.100;2024-02-23T11:22:42;23.20;55.50
40323;DHT22;26030;51.164;17.100;2024-02-23T11:27:48;23.30;55.60
40323;DHT22;26030;51.164;17.100;2024-02-23T11:32:52;23.40;54.80
40323;DHT22;26030;51.164;17.100;2024-02-23T11:38:02;23.40;54.50
40323;DHT22;26030;51.164;17.100;2024-02-23T11:43:09;23.50;54.30
40323;DHT22;26030;51.164;17.100;2024-02-23T11:48:13;23.40;54.70
40323;DHT22;26030;51.164;17.100;2024-02-23T11:53:17;23.30;55.10
40323;DHT22;26030;51.164;17.100;2024-02-23T11:58:24;23.40;55.00
40323;DHT22;26030;51.164;17.100;2024-02-23T12:03:29;23.30;55.30
40323;DHT22;26030;51.164;17.100;2024-02-23T12:08:34;23.30;55.00
40323;DHT22;26030;51.164;17.100;2024-02-23T12:13:42;23.20;55.20
40323;DHT22;26030;51.164;17.100;2024-02-23T12:18:52;23.30;55.20
40323;DHT22;26030;51.164;17.100;2024-02-23T12:23:56;23.40;55.00
40323;DHT22;26030;51.164;17.100;2024-02-23T12:29:00;23.40;54.60
40323;DHT22;26030;51.164;17.100;2024-02-23T12:34:06;23.40;54.50
40323;DHT22;26030;51.164;17.100;2024-02-23T12:39:11;23.30;54.80
40323;DHT22;26030;51.164;17.100;2024-02-23T12:44:15;23.20;54.60
40323;DHT22;26030;51.164;17.100;2024-02-23T12:49:19;23.40;54.00
40323;DHT22;26030;51.164;17.100;2024-02-23T12:54:23;23.40;53.90
40323;DHT22;26030;51.164;17.100;2024-02-23T12:59:27;23.40;53.60
40323;DHT22;26030;51.164;17.100;2024-02-23T13:04:32;23.40;53.60
40323;DHT22;26030;51.164;17.100;2024-02-23T13:09:36;23.40;53.70
40323;DHT22;26030;51.164;17.100;2024-02-23T13:14:41;23.40;53.60
40323;DHT22;26030;51.164;17.100;2024-02-23T13:19:45;23.30;53.60
40323;DHT22;26030;51.164;17.100;2024-02-23T13:25:08;23.30;53.70
40323;DHT22;26030;51.164;17.100;2024-02-23T13:30:13;23.10;53.70
40323;DHT22;26030;51.164;17.100;2024-02-23T13:35:17;23.10;54.50
40323;DHT22;26030;51.164;17.100;2024-02-23T13:40:21;23.10;54.40
40323;DHT22;26030;51.164;17.100;2024-02-23T13:45:25;23.20;54.00
40323;DHT22;26030;51.164;17.100;2024-02-23T13:50:29;23.40;53.60
40323;DHT22;26030;51.164;17.100;2024-02-23T13:55:34;23.50;53.30
40323;DHT22;26030;51.164;17.100;2024-02-23T14:00:38;23.50;53.20
40323;DHT22;26030;51.164;17.100;2024-02-23T14:05:42;23.50;53.20
40323;DHT22;26030;51.164;17.100;2024-02-23T14:10:48;23.50;53.60
40323;DHT22;26030;51.164;17.100;2024-02-23T14:15:53;23.40;53.50
40323;DHT22;26030;51.164;17.100;2024-02-23T14:20:57;23.40;53.40
40323;DHT22;26030;51.164;17.100;2024-02-23T14:26:03;23.30;53.50
40323;DHT22;26030;51.164;17.100;2024-02-23T14:31:07;23.30;53.50
40323;DHT22;26030;51.164;17.100;2024-02-23T14:36:11;23.30;53.40
40323;DHT22;26030;51.164;17.100;2024-02-23T14:41:15;23.30;53.30
40323;DHT22;26030;51.164;17.100;2024-02-23T14:46:20;23.30;53.80
40323;DHT22;26030;51.164;17.100;2024-02-23T14:51:24;23.30;53.40
40323;DHT22;26030;51.164;17.100;2024-02-23T14:56:28;23.10;53.60
40323;DHT22;26030;51.164;17.100;2024-02-23T15:01:33;23.00;53.70
40323;DHT22;26030;51.164;17.100;2024-02-23T15:06:37;23.00;54.00
40323;DHT22;26030;51.164;17.100;2024-02-23T15:11:42;23.00;53.90
40323;DHT22;26030;51.164;17.100;2024-02-23T15:16:47;22.90;53.60
40323;DHT22;26030;51.164;17.100;2024-02-23T15:21:51;22.90;53.50
40323;DHT22;26030;51.164;17.100;2024-02-23T15:26:57;22.90;53.30
40323;DHT22;26030;51.164;17.100;2024-02-23T15:32:01;23.00;53.60
40323;DHT22;26030;51.164;17.100;2024-02-23T15:37:05;23.10;53.00
40323;DHT22;26030;51.164;17.100;2024-02-23T15:42:10;23.10;52.20
40323;DHT22;26030;51.164;17.100;2024-02-23T15:47:17;23.30;52.50
40323;DHT22;26030;51.164;17.100;2024-02-23T15:52:21;23.30;52.30
40323;DHT22;26030;51.164;17.100;2024-02-23T15:57:26;23.30;52.30
40323;DHT22;26030;51.164;17.100;2024-02-23T16:02:30;23.20;52.20
40323;DHT22;26030;51.164;17.100;2024-02-23T16:07:34;23.20;52.00
40323;DHT22;26030;51.164;17.100;2024-02-23T16:12:38;23.20;52.10
40323;DHT22;26030;51.164;17.100;2024-02-23T16:17:42;23.10;52.10
40323;DHT22;26030;51.164;17.100;2024-02-23T16:22:47;23.10;52.10
40323;DHT22;26030;51.164;17.100;2024-02-23T16:27:52;23.10;52.10
40323;DHT22;26030;51.164;17.100;2024-02-23T16:32:57;23.10;52.50
40323;DHT22;26030;51.164;17.100;2024-02-23T16:38:01;23.10;52.50
40323;DHT22;26030;51.164;17.100;2024-02-23T16:43:06;23.20;53.20
40323;DHT22;26030;51.164;17.100;2024-02-23T16:48:11;23.20;52.50
40323;DHT22;26030;51.164;17.100;2024-02-23T16:53:15;23.20;52.90
40323;DHT22;26030;51.164;17.100;2024-02-23T16:58:20;23.30;52.80
40323;DHT22;26030;51.164;17.100;2024-02-23T17:03:26;23.20;52.90
40323;DHT22;26030;51.164;17.100;2024-02-23T17:08:30;23.20;53.00
40323;DHT22;26030;51.164;17.100;2024-02-23T17:13:35;23.00;53.50
40323;DHT22;26030;51.164;17.100;2024-02-23T17:18:39;23.00;53.30
40323;DHT22;26030;51.164;17.100;2024-02-23T17:23:43;23.00;54.00
40323;DHT22;26030;51.164;17.100;2024-02-23T17:28:55;23.10;52.60
40323;DHT22;26030;51.164;17.100;2024-02-23T17:33:59;23.10;52.90
40323;DHT22;26030;51.164;17.100;2024-02-23T17:39:04;23.10;53.30
40323;DHT22;26030;51.164;17.100;2024-02-23T17:44:10;23.00;53.40
40323;DHT22;26030;51.164;17.100;2024-02-23T17:49:15;22.90;53.90
40323;DHT22;26030;51.164;17.100;2024-02-23T17:54:19;23.10;53.30
40323;DHT22;26030;51.164;17.100;2024-02-23T17:59:23;23.40;53.10
40323;DHT22;26030;51.164;17.100;2024-02-23T18:04:28;23.60;52.60
40323;DHT22;26030;51.164;17.100;2024-02-23T18:09:33;23.70;51.80
40323;DHT22;26030;51.164;17.100;2024-02-23T18:14:37;23.70;52.10
40323;DHT22;26030;51.164;17.100;2024-02-23T18:19:41;23.60;51.80
40323;DHT22;26030;51.164;17.100;2024-02-23T18:24:50;23.50;52.00
40323;DHT22;26030;51.164;17.100;2024-02-23T18:29:54;23.50;53.50
40323;DHT22;26030;51.164;17.100;2024-02-23T18:34:58;23.30;54.60
40323;DHT22;26030;51.164;17.100;2024-02-23T18:40:03;23.30;54.70
40323;DHT22;26030;51.164;17.100;2024-02-23T18:45:07;23.30;54.90
40323;DHT22;26030;51.164;17.100;2024-02-23T18:50:12;23.50;54.60
40323;DHT22;26030;51.164;17.100;2024-02-23T18:55:20;23.50;53.70
40323;DHT22;26030;51.164;17.100;2024-02-23T19:00:25;23.40;53.60
40323;DHT22;26030;51.164;17.100;2024-02-23T19:05:29;23.20;53.50
40323;DHT22;26030;51.164;17.100;2024-02-23T19:10:35;23.30;53.50
40323;DHT22;26030;51.164;17.100;2024-02-23T19:15:41;23.20;53.30
40323;DHT22;26030;51.164;17.100;2024-02-23T19:20:48;23.30;52.60
40323;DHT22;26030;51.164;17.100;2024-02-23T19:26:03;23.10;53.00
40323;DHT22;26030;51.164;17.100;2024-02-23T19:31:08;22.90;53.30
40323;DHT22;26030;51.164;17.100;2024-02-23T19:36:12;22.90;53.50
40323;DHT22;26030;51.164;17.100;2024-02-23T19:41:19;22.90;53.20
40323;DHT22;26030;51.164;17.100;2024-02-23T19:46:23;22.90;53.30
40323;DHT22;26030;51.164;17.100;2024-02-23T19:51:32;22.90;53.40
40323;DHT22;26030;51.164;17.100;2024-02-23T19:56:45;23.00;53.20
40323;DHT22;26030;51.164;17.100;2024-02-23T20:01:50;22.90;53.00
40323;DHT22;26030;51.164;17.100;2024-02-23T20:06:54;22.90;53.80
40323;DHT22;26030;51.164;17.100;2024-02-23T20:11:59;22.80;54.20
40323;DHT22;26030;51.164;17.100;2024-02-23T20:17:03;22.80;54.30
40323;DHT22;26030;51.164;17.100;2024-02-23T20:22:08;22.80;54.20
40323;DHT22;26030;51.164;17.100;2024-02-23T20:27:12;22.80;53.80
40323;DHT22;26030;51.164;17.100;2024-02-23T20:32:17;22.80;53.80
40323;DHT22;26030;51.164;17.100;2024-02-23T20:37:32;22.70;54.00
40323;DHT22;26030;51.164;17.100;2024-02-23T20:42:36;22.90;53.80
40323;DHT22;26030;51.164;17.100;2024-02-23T20:47:40;23.30;53.90
40323;DHT22;26030;51.164;17.100;2024-02-23T20:52:46;23.30;54.10
40323;DHT22;26030;51.164;17.100;2024-02-23T20:57:50;23.20;54.70
40323;DHT22;26030;51.164;17.100;2024-02-23T21:02:59;23.20;57.60
40323;DHT22;26030;51.164;17.100;2024-02-23T21:08:04;23.10;57.10
40323;DHT22;26030;51.164;17.100;2024-02-23T21:13:11;23.00;56.40
40323;DHT22;26030;51.164;17.100;2024-02-23T21:18:16;23.00;56.50
40323;DHT22;26030;51.164;17.100;2024-02-23T21:23:25;23.00;56.60
40323;DHT22;26030;51.164;17.100;2024-02-23T21:28:34;23.00;57.00
40323;DHT22;26030;51.164;17.100;2024-02-23T21:33:41;22.90;56.40
40323;DHT22;26030;51.164;17.100;2024-02-23T21:38:51;22.80;56.50
40323;DHT22;26030;51.164;17.100;2024-02-23T21:43:59;22.80;56.60
40323;DHT22;26030;51.164;17.100;2024-02-23T21:49:15;22.90;57.00
40323;DHT22;26030;51.164;17.100;2024-02-23T21:54:21;23.10;56.20
40323;DHT22;26030;51.164;17.100;2024-02-23T21:59:36;23.30;55.60
40323;DHT22;26030;51.164;17.100;2024-02-23T22:04:56;23.30;54.90
40323;DHT22;26030;51.164;17.100;2024-02-23T22:10:08;23.40;54.90
40323;DHT22;26030;51.164;17.100;2024-02-23T22:15:28;23.40;54.90
40323;DHT22;26030;51.164;17.100;2024-02-23T22:20:58;23.50;54.80
40323;DHT22;26030;51.164;17.100;2024-02-23T22:26:17;23.60;54.60
40323;DHT22;26030;51.164;17.100;2024-02-23T22:31:47;23.60;54.80
40323;DHT22;26030;51.164;17.100;2024-02-23T22:37:04;23.40;55.10
40323;DHT22;26030;51.164;17.100;2024-02-23T22:42:18;23.30;55.30
40323;DHT22;26030;51.164;17.100;2024-02-23T22:47:32;23.20;55.50
40323;DHT22;26030;51.164;17.100;2024-02-23T22:52:45;23.10;55.70
40323;DHT22;26030;51.164;17.100;2024-02-23T22:57:58;23.10;55.80
40323;DHT22;26030;51.164;17.100;2024-02-23T23:03:11;23.10;55.70
40323;DHT22;26030;51.164;17.100;2024-02-23T23:08:26;23.10;55.70
40323;DHT22;26030;51.164;17.100;2024-02-23T23:13:45;23.10;55.80
40323;DHT22;26030;51.164;17.100;2024-02-23T23:18:55;23.00;56.00
40323;DHT22;26030;51.164;17.100;2024-02-23T23:24:07;23.00;56.00
40323;DHT22;26030;51.164;17.100;2024-02-23T23:29:24;23.00;56.10
40323;DHT22;26030;51.164;17.100;2024-02-23T23:34:36;23.00;55.90
40323;DHT22;26030;51.164;17.100;2024-02-23T23:39:42;23.20;55.80
40323;DHT22;26030;51.164;17.100;2024-02-23T23:44:50;23.40;55.10
40323;DHT22;26030;51.164;17.100;2024-02-23T23:49:54;23.50;54.90
40323;DHT22;26030;51.164;17.100;2024-02-23T23:54:58;23.70;54.80
